Terminal Aerodrome Forecast
Issued by NWS Flagstaff, AZ

Home | Current Version | Previous Version | Text Only | Print | Product List | Glossary On
Versions: 1 2 3 4 5 6 7 8 9 10 11 12 13 14
000
FTUS45 KFGZ 061120
TAFFLG
TAF
KFLG 061120Z 0612/0712 23007KT P6SM FEW100 SCT150 BKN250
     FM061700 22015G25KT P6SM SCT100 BKN150
     FM070300 22010KT P6SM SCT250
     FM070700 25010KT P6SM BKN030=

USA.gov is the U.S. government's official web portal to all federal, state and local government web resources and services.